Izmir/Cumaovasi, Turkey
Current Conditions -  °F | °C
As of 7:50 AM on Thursday 23 Oct 2014 (Local Time) from LTBJ Reporting Station
Broken Clouds Broken Clouds  
Wind Chill: 64°   Ceiling: 10000
Heat Index: 64°   Visibility: 6mi
Dew Point: 57°   Wind: 10mph
Humidity: 77%   Direction: 150°SSE
Pressure: 29.71"   Gusts: NA
Location:  38.21°N, 27.17°E
Report Text: LTBJ 230450Z 15009KT 9999 SCT030 BKN100 18/14 Q1006 BECMG 18020G35KT
Loading
Personal Weather Stations






























Interactive Weather Map
Tropical Storm Tracking
New forecast layout! Learn more

10-Day Weather Forecast

Advertisements
Track Severe Weather on mobile